Time;durP1;ratioP1;P1;durP2;ratioP2;P2;SDS_P1;SDS_P2;PMS_P1;PMS_P2;Temp;Humidity;BMP_temperature;BMP_pressure;BME280_temperature;BME280_humidity;BME280_pressure;Samples;Min_cycle;Max_cycle;Signal;HPM_P1;HPM_P2
2023/04/04 00:01:35;;;;;;;;;;;8.40;72.20;;;;;;5103387;27;87127;-41
2023/04/04 00:04:00;;;;;;;;;;;8.30;72.10;;;;;;5103134;27;88448;-41
2023/04/04 00:06:26;;;;;;;;;;;8.30;72.10;;;;;;5102826;27;89200;-41
2023/04/04 00:08:52;;;;;;;;;;;8.30;72.00;;;;;;5103390;27;87493;-41
2023/04/04 00:11:17;;;;;;;;;;;8.30;72.00;;;;;;5105912;27;88880;-41
2023/04/04 00:13:44;;;;;;;;;;;8.40;72.00;;;;;;5103151;27;86473;-41
2023/04/04 00:16:10;;;;;;;;;;;8.30;72.00;;;;;;5103438;27;87052;-41
2023/04/04 00:18:35;;;;;;;;;;;8.30;72.00;;;;;;5103102;27;88072;-41
2023/04/04 00:21:01;;;;;;;;;;;8.30;72.00;;;;;;5102460;27;88095;-41
2023/04/04 00:23:27;;;;;;;;;;;8.30;72.00;;;;;;5103083;27;89975;-41
2023/04/04 00:25:52;;;;;;;;;;;8.30;72.10;;;;;;5102692;27;89222;-41
2023/04/04 00:28:19;;;;;;;;;;;8.30;72.00;;;;;;5103084;27;87123;-41
2023/04/04 00:30:45;;;;;;;;;;;8.30;72.00;;;;;;5102943;27;87729;-41
2023/04/04 00:33:10;;;;;;;;;;;8.30;72.10;;;;;;5105581;27;89174;-41
2023/04/04 00:35:35;;;;;;;;;;;8.30;72.00;;;;;;5102622;27;89148;-41
2023/04/04 00:38:01;;;;;;;;;;;8.30;72.10;;;;;;5103109;27;87337;-41
2023/04/04 00:40:27;;;;;;;;;;;8.30;72.00;;;;;;5102929;27;87309;-41
2023/04/04 00:42:52;;;;;;;;;;;8.30;72.00;;;;;;5101800;27;89089;-41
2023/04/04 00:45:18;;;;;;;;;;;8.30;71.90;;;;;;5101768;27;89870;-41
2023/04/04 00:47:44;;;;;;;;;;;8.30;72.00;;;;;;5102921;27;87236;-41
2023/04/04 00:50:09;;;;;;;;;;;8.30;72.00;;;;;;5102800;27;88457;-41
2023/04/04 00:52:36;;;;;;;;;;;8.30;71.90;;;;;;5105381;27;89399;-41
2023/04/04 00:55:02;;;;;;;;;;;8.30;72.00;;;;;;5098678;27;88660;-41
2023/04/04 00:57:28;;;;;;;;;;;8.30;72.00;;;;;;5102684;27;88223;-41
2023/04/04 00:59:56;;;;;;;;;;;8.30;72.10;;;;;;5102556;27;87396;-41
2023/04/04 01:02:22;;;;;;;;;;;8.30;72.00;;;;;;5102778;27;88855;-41
2023/04/04 01:04:48;;;;;;;;;;;8.30;72.10;;;;;;5101970;27;89442;-41
2023/04/04 01:07:13;;;;;;;;;;;8.30;72.10;;;;;;5102157;27;86938;-41
2023/04/04 01:09:39;;;;;;;;;;;8.30;72.00;;;;;;5101818;27;88668;-41
2023/04/04 01:12:05;;;;;;;;;;;8.30;72.10;;;;;;5101948;27;89642;-40
2023/04/04 01:14:31;;;;;;;;;;;8.20;72.10;;;;;;5104733;27;87049;-40
2023/04/04 01:16:57;;;;;;;;;;;8.30;72.10;;;;;;5101705;27;89688;-41
2023/04/04 01:19:27;;;;;;;;;;;8.30;72.00;;;;;;5098172;27;87921;-41
2023/04/04 01:21:54;;;;;;;;;;;8.30;72.10;;;;;;5098209;27;88850;-41
2023/04/04 01:24:20;;;;;;;;;;;8.30;72.20;;;;;;5102193;27;87888;-41
2023/04/04 01:26:46;;;;;;;;;;;8.30;72.10;;;;;;5102747;27;86909;-41
2023/04/04 01:29:11;;;;;;;;;;;8.30;72.30;;;;;;5102350;27;87889;-41
2023/04/04 01:31:41;;;;;;;;;;;8.20;72.20;;;;;;5101512;27;88640;-41
2023/04/04 01:34:26;;;;;;;;;;;8.20;72.20;;;;;;5097262;27;88059;-41
2023/04/04 01:36:56;;;;;;;;;;;8.20;72.20;;;;;;5104900;27;89532;-41
2023/04/04 01:39:26;;;;;;;;;;;8.20;72.20;;;;;;5101827;27;87167;-41
2023/04/04 01:41:52;;;;;;;;;;;8.20;72.20;;;;;;5101815;27;87700;-41
2023/04/04 01:44:18;;;;;;;;;;;8.20;72.20;;;;;;5101470;27;89121;-41
2023/04/04 01:46:44;;;;;;;;;;;8.20;72.00;;;;;;5101866;27;87184;-41
2023/04/04 01:49:09;;;;;;;;;;;8.20;72.10;;;;;;5098174;27;87329;-41
2023/04/04 01:51:35;;;;;;;;;;;8.20;72.00;;;;;;5102091;27;86524;-41
2023/04/04 01:54:01;;;;;;;;;;;8.20;72.10;;;;;;5103040;27;87484;-41
2023/04/04 01:56:26;;;;;;;;;;;8.20;72.10;;;;;;5105743;27;87358;-41
2023/04/04 01:58:52;;;;;;;;;;;8.20;72.10;;;;;;5107468;27;90573;-41
2023/04/04 02:01:18;;;;;;;;;;;8.20;72.10;;;;;;5104893;27;89406;-41
2023/04/04 02:03:44;;;;;;;;;;;8.20;72.10;;;;;;5105025;27;89393;-40
2023/04/04 02:06:09;;;;;;;;;;;8.20;72.20;;;;;;5105398;27;87242;-41
2023/04/04 02:08:35;;;;;;;;;;;8.20;72.30;;;;;;5105516;27;87007;-40
2023/04/04 02:11:00;;;;;;;;;;;8.20;72.20;;;;;;5104717;27;89535;-41
2023/04/04 02:13:26;;;;;;;;;;;8.20;72.80;;;;;;5104826;27;87156;-41
2023/04/04 02:15:52;;;;;;;;;;;8.20;72.20;;;;;;5104951;27;87981;-41
2023/04/04 02:18:18;;;;;;;;;;;8.20;72.30;;;;;;5104751;27;89626;-41
2023/04/04 02:20:43;;;;;;;;;;;8.20;72.20;;;;;;5108266;27;87098;-41
2023/04/04 02:23:09;;;;;;;;;;;8.20;72.10;;;;;;5103527;27;90701;-41
2023/04/04 02:25:34;;;;;;;;;;;8.10;72.30;;;;;;5103416;27;87100;-41
2023/04/04 02:28:00;;;;;;;;;;;8.20;72.20;;;;;;5104904;27;88709;-41
2023/04/04 02:30:25;;;;;;;;;;;8.10;72.10;;;;;;5104167;27;89100;-41
2023/04/04 02:32:51;;;;;;;;;;;8.20;72.30;;;;;;5104583;27;87265;-41
2023/04/04 02:35:17;;;;;;;;;;;8.10;72.20;;;;;;5101016;27;88651;-41
2023/04/04 02:37:44;;;;;;;;;;;8.20;72.20;;;;;;5104487;27;89768;-41
2023/04/04 02:40:09;;;;;;;;;;;8.20;72.20;;;;;;5105050;27;86510;-41
2023/04/04 02:42:35;;;;;;;;;;;8.10;72.20;;;;;;5107078;27;87070;-41
2023/04/04 02:45:00;;;;;;;;;;;8.10;72.20;;;;;;5104444;27;87098;-41
2023/04/04 02:47:26;;;;;;;;;;;8.10;72.20;;;;;;5103839;27;88875;-41
2023/04/04 02:49:51;;;;;;;;;;;8.10;72.20;;;;;;5103805;27;89772;-41
2023/04/04 02:52:17;;;;;;;;;;;8.20;72.30;;;;;;5104134;27;87132;-41
2023/04/04 02:54:43;;;;;;;;;;;8.10;72.30;;;;;;5104507;27;88615;-41
2023/04/04 02:57:09;;;;;;;;;;;8.10;72.30;;;;;;5104375;27;88125;-41
2023/04/04 02:59:34;;;;;;;;;;;8.10;72.40;;;;;;5104637;27;87483;-41
2023/04/04 03:02:00;;;;;;;;;;;8.10;72.30;;;;;;5107125;27;87707;-41
2023/04/04 03:04:25;;;;;;;;;;;8.10;72.40;;;;;;5104844;27;86544;-41
2023/04/04 03:06:51;;;;;;;;;;;8.10;72.20;;;;;;5103085;27;88167;-41
2023/04/04 03:09:17;;;;;;;;;;;8.10;72.10;;;;;;5102837;27;90902;-41
2023/04/04 03:11:43;;;;;;;;;;;8.10;72.20;;;;;;5103595;27;87976;-41
2023/04/04 03:14:08;;;;;;;;;;;8.10;72.20;;;;;;5103761;27;88601;-41
2023/04/04 03:16:34;;;;;;;;;;;8.10;72.30;;;;;;5103928;27;88088;-41
2023/04/04 03:18:59;;;;;;;;;;;8.00;72.30;;;;;;5104216;27;87793;-41
2023/04/04 03:21:25;;;;;;;;;;;8.10;72.80;;;;;;5100071;27;87733;-41
2023/04/04 03:23:50;;;;;;;;;;;8.10;72.20;;;;;;5106504;27;89275;-41
2023/04/04 03:26:16;;;;;;;;;;;8.10;72.30;;;;;;5103925;27;88684;-41
2023/04/04 03:28:41;;;;;;;;;;;8.10;72.20;;;;;;5104598;27;88519;-41
2023/04/04 03:31:07;;;;;;;;;;;8.00;72.20;;;;;;5103854;27;87132;-41
2023/04/04 03:33:36;;;;;;;;;;;8.10;72.30;;;;;;5103922;27;88927;-41
2023/04/04 03:36:02;;;;;;;;;;;8.10;72.40;;;;;;5099107;27;89989;-41
2023/04/04 03:38:28;;;;;;;;;;;8.00;72.30;;;;;;5103883;27;87642;-41
2023/04/04 03:41:00;;;;;;;;;;;8.10;72.50;;;;;;5101058;27;89075;-41
2023/04/04 03:43:27;;;;;;;;;;;8.00;72.20;;;;;;5102426;27;89521;-41
2023/04/04 03:45:52;;;;;;;;;;;8.10;72.30;;;;;;5106226;27;87391;-41
2023/04/04 03:48:18;;;;;;;;;;;8.00;72.40;;;;;;5103238;27;89203;-41
2023/04/04 03:50:43;;;;;;;;;;;8.00;72.30;;;;;;5104173;27;88292;-41
2023/04/04 03:53:10;;;;;;;;;;;8.00;72.30;;;;;;5103931;27;87368;-41
2023/04/04 03:55:39;;;;;;;;;;;8.00;72.30;;;;;;5103217;27;87906;-41
2023/04/04 03:58:04;;;;;;;;;;;8.00;72.30;;;;;;5103495;27;87506;-41
2023/04/04 04:00:30;;;;;;;;;;;8.10;72.30;;;;;;5102396;27;89060;-41
2023/04/04 04:02:55;;;;;;;;;;;8.00;72.30;;;;;;5103353;27;89213;-41
2023/04/04 04:05:21;;;;;;;;;;;8.00;72.40;;;;;;5103638;27;87550;-41
2023/04/04 04:07:46;;;;;;;;;;;8.00;72.40;;;;;;5106228;27;88642;-41
2023/04/04 04:10:13;;;;;;;;;;;8.00;72.40;;;;;;5103453;27;87114;-41
2023/04/04 04:12:38;;;;;;;;;;;8.00;72.40;;;;;;5103587;27;87528;-41
2023/04/04 04:15:04;;;;;;;;;;;8.00;72.40;;;;;;5102621;27;89385;-41
2023/04/04 04:17:29;;;;;;;;;;;8.00;72.40;;;;;;5103701;27;86400;-41
2023/04/04 04:19:55;;;;;;;;;;;8.00;72.30;;;;;;5103399;27;87964;-41
2023/04/04 04:22:20;;;;;;;;;;;8.00;72.30;;;;;;5102920;27;88933;-41
2023/04/04 04:24:46;;;;;;;;;;;8.00;72.50;;;;;;5102359;27;88410;-41
2023/04/04 04:27:11;;;;;;;;;;;8.00;72.30;;;;;;5103066;27;88861;-41
2023/04/04 04:29:37;;;;;;;;;;;8.00;72.40;;;;;;5105216;27;89583;-41
2023/04/04 04:32:02;;;;;;;;;;;8.00;72.40;;;;;;5102815;27;88583;-41
2023/04/04 04:34:28;;;;;;;;;;;8.00;72.40;;;;;;5102670;27;88068;-41
2023/04/04 04:36:53;;;;;;;;;;;8.00;72.40;;;;;;5102585;27;87438;-41
2023/04/04 04:39:19;;;;;;;;;;;8.00;72.50;;;;;;5102978;27;87402;-41
2023/04/04 04:41:44;;;;;;;;;;;8.00;72.40;;;;;;5102636;27;88715;-41
2023/04/04 04:44:10;;;;;;;;;;;7.90;72.40;;;;;;5102541;27;87125;-41
2023/04/04 04:46:35;;;;;;;;;;;8.00;72.40;;;;;;5102889;27;87068;-40
2023/04/04 04:49:01;;;;;;;;;;;8.00;72.30;;;;;;5101843;27;88795;-41
2023/04/04 04:51:27;;;;;;;;;;;8.00;72.40;;;;;;5105418;27;87089;-41
2023/04/04 04:53:52;;;;;;;;;;;8.00;72.50;;;;;;5102302;27;89738;-41
2023/04/04 04:56:18;;;;;;;;;;;8.00;72.40;;;;;;5102482;27;87013;-41
2023/04/04 04:58:44;;;;;;;;;;;8.00;72.40;;;;;;5102551;27;88933;-41
2023/04/04 05:01:09;;;;;;;;;;;7.90;72.40;;;;;;5102030;27;89395;-41
2023/04/04 05:03:35;;;;;;;;;;;8.00;72.50;;;;;;5102595;27;87125;-41
2023/04/04 05:06:01;;;;;;;;;;;8.00;72.50;;;;;;5103502;27;86561;-41
2023/04/04 05:08:26;;;;;;;;;;;7.90;72.30;;;;;;5101802;27;89185;-41
2023/04/04 05:10:53;;;;;;;;;;;8.00;72.40;;;;;;5105536;27;87123;-41
2023/04/04 05:13:19;;;;;;;;;;;7.90;72.40;;;;;;5100901;27;88094;-41
2023/04/04 05:16:03;;;;;;;;;;;8.00;72.40;;;;;;5102348;27;87131;-41
2023/04/04 05:18:29;;;;;;;;;;;8.00;72.50;;;;;;5102622;27;88730;-41
2023/04/04 05:20:55;;;;;;;;;;;7.90;73.10;;;;;;5102101;27;89308;-41
2023/04/04 05:23:21;;;;;;;;;;;7.90;72.50;;;;;;5102091;27;87397;-40
2023/04/04 05:25:50;;;;;;;;;;;8.00;72.50;;;;;;5102333;27;88598;-40
2023/04/04 05:28:16;;;;;;;;;;;7.90;72.50;;;;;;5102000;27;88521;-41
2023/04/04 05:30:41;;;;;;;;;;;7.90;72.50;;;;;;5106002;27;86402;-41
2023/04/04 05:33:07;;;;;;;;;;;7.90;72.50;;;;;;5108561;27;87382;-41
2023/04/04 05:35:32;;;;;;;;;;;7.90;72.50;;;;;;5106123;27;87226;-41
2023/04/04 05:37:58;;;;;;;;;;;7.90;72.50;;;;;;5105270;27;87951;-41
2023/04/04 05:40:23;;;;;;;;;;;8.00;72.50;;;;;;5104974;27;89810;-40
2023/04/04 05:42:55;;;;;;;;;;;7.90;72.40;;;;;;5105482;27;87147;-41
2023/04/04 05:45:21;;;;;;;;;;;8.00;72.50;;;;;;5105869;27;88758;-41
2023/04/04 05:47:46;;;;;;;;;;;8.00;72.50;;;;;;5105005;27;89485;-41
2023/04/04 05:50:12;;;;;;;;;;;7.90;72.50;;;;;;5105532;27;87436;-41
2023/04/04 05:52:37;;;;;;;;;;;7.90;72.40;;;;;;5105468;27;87620;-40
2023/04/04 05:55:03;;;;;;;;;;;8.00;73.10;;;;;;5108433;27;87815;-41
2023/04/04 05:57:28;;;;;;;;;;;8.00;72.70;;;;;;5105294;27;88243;-41
2023/04/04 05:59:54;;;;;;;;;;;7.90;73.20;;;;;;5105019;27;88343;-41
2023/04/04 06:02:19;;;;;;;;;;;7.90;72.50;;;;;;5104750;27;88569;-40
2023/04/04 06:04:45;;;;;;;;;;;7.90;72.50;;;;;;5101227;27;89942;-41
2023/04/04 06:07:10;;;;;;;;;;;7.90;72.60;;;;;;5105279;27;87923;-41
2023/04/04 06:09:36;;;;;;;;;;;7.90;73.30;;;;;;5105057;27;87593;-41
2023/04/04 06:12:03;;;;;;;;;;;7.90;72.60;;;;;;5101541;27;88797;-41
2023/04/04 06:14:29;;;;;;;;;;;7.90;72.50;;;;;;5104471;27;89486;-41
2023/04/04 06:16:55;;;;;;;;;;;7.90;72.50;;;;;;5108160;27;87158;-41
2023/04/04 06:19:20;;;;;;;;;;;7.90;72.50;;;;;;5101628;27;87311;-41
2023/04/04 06:21:46;;;;;;;;;;;7.90;72.50;;;;;;5104952;27;87047;-41
2023/04/04 06:24:11;;;;;;;;;;;8.00;72.30;;;;;;5105275;27;89151;-41
2023/04/04 06:26:37;;;;;;;;;;;8.00;72.10;;;;;;5104019;27;90053;-41
2023/04/04 06:29:03;;;;;;;;;;;8.00;72.00;;;;;;5104905;27;87109;-41
2023/04/04 06:31:29;;;;;;;;;;;8.00;72.30;;;;;;5105076;27;88806;-41
2023/04/04 06:33:55;;;;;;;;;;;8.00;72.10;;;;;;5104484;27;88448;-40
2023/04/04 06:36:20;;;;;;;;;;;8.00;72.30;;;;;;5104733;27;87115;-41
2023/04/04 06:38:46;;;;;;;;;;;8.00;72.00;;;;;;5108025;27;87778;-41
2023/04/04 06:41:11;;;;;;;;;;;8.00;72.00;;;;;;5103359;27;87089;-41
2023/04/04 06:43:37;;;;;;;;;;;8.00;72.00;;;;;;5105360;27;87378;-41
2023/04/04 06:46:03;;;;;;;;;;;8.00;72.30;;;;;;5104582;27;88329;-40
2023/04/04 06:48:28;;;;;;;;;;;8.00;72.30;;;;;;5104764;27;87196;-41
2023/04/04 06:50:54;;;;;;;;;;;8.00;72.10;;;;;;5104516;27;88903;-41
2023/04/04 06:53:19;;;;;;;;;;;7.90;72.20;;;;;;5104238;27;89553;-41
2023/04/04 06:55:45;;;;;;;;;;;8.00;72.40;;;;;;5104926;27;87364;-41
2023/04/04 06:58:10;;;;;;;;;;;8.00;72.20;;;;;;5106982;27;88884;-41
2023/04/04 07:00:36;;;;;;;;;;;8.00;72.20;;;;;;5104536;27;87029;-41
2023/04/04 07:03:01;;;;;;;;;;;8.00;72.20;;;;;;5103819;27;88025;-41
2023/04/04 07:05:27;;;;;;;;;;;7.90;72.50;;;;;;5103298;27;89181;-41
2023/04/04 07:07:56;;;;;;;;;;;8.00;72.70;;;;;;5104384;27;86488;-41
2023/04/04 07:10:22;;;;;;;;;;;8.00;72.50;;;;;;5103753;27;88120;-41
2023/04/04 07:12:47;;;;;;;;;;;8.00;72.60;;;;;;5103100;27;87893;-41
2023/04/04 07:15:13;;;;;;;;;;;8.00;72.50;;;;;;5103342;27;88176;-41
2023/04/04 07:17:40;;;;;;;;;;;8.00;72.60;;;;;;5103981;27;88864;-41
2023/04/04 07:20:07;;;;;;;;;;;7.90;72.90;;;;;;5106521;27;89087;-41
2023/04/04 07:22:35;;;;;;;;;;;7.90;72.80;;;;;;5103944;27;90527;-41
2023/04/04 07:25:01;;;;;;;;;;;7.90;72.70;;;;;;5103579;27;88524;-41
2023/04/04 07:27:26;;;;;;;;;;;7.90;72.60;;;;;;5104296;27;87060;-40
2023/04/04 07:29:52;;;;;;;;;;;8.00;72.60;;;;;;5104062;27;88851;-41
2023/04/04 07:32:17;;;;;;;;;;;7.90;72.50;;;;;;5104481;27;87403;-41
2023/04/04 07:34:44;;;;;;;;;;;8.00;72.60;;;;;;5103802;27;87483;-41
2023/04/04 07:37:09;;;;;;;;;;;7.90;72.80;;;;;;5103716;27;88558;-41
2023/04/04 07:39:35;;;;;;;;;;;7.90;72.70;;;;;;5102886;27;90323;-40
2023/04/04 07:42:01;;;;;;;;;;;7.90;72.70;;;;;;5105886;27;87190;-41
2023/04/04 07:44:26;;;;;;;;;;;7.90;72.70;;;;;;5103404;27;89182;-41
2023/04/04 07:46:52;;;;;;;;;;;7.90;72.60;;;;;;5103755;27;87377;-41
2023/04/04 07:49:17;;;;;;;;;;;7.90;72.60;;;;;;5104026;27;87270;-41
2023/04/04 07:51:43;;;;;;;;;;;7.90;72.60;;;;;;5103046;27;89568;-41
2023/04/04 07:54:09;;;;;;;;;;;7.90;72.40;;;;;;5104096;27;87527;-41
2023/04/04 07:56:34;;;;;;;;;;;8.00;72.50;;;;;;5103721;27;87810;-41
2023/04/04 07:59:00;;;;;;;;;;;7.90;72.30;;;;;;5103092;27;89539;-41
2023/04/04 08:01:25;;;;;;;;;;;7.90;72.40;;;;;;5103726;27;87015;-41
2023/04/04 08:03:52;;;;;;;;;;;7.90;72.50;;;;;;5104827;27;88438;-41
2023/04/04 08:06:18;;;;;;;;;;;7.90;72.20;;;;;;5102723;27;87545;-41
2023/04/04 08:08:45;;;;;;;;;;;7.90;72.40;;;;;;5103368;27;89110;-41
2023/04/04 08:11:11;;;;;;;;;;;7.90;72.40;;;;;;5103013;27;88286;-41
2023/04/04 08:13:37;;;;;;;;;;;7.90;72.40;;;;;;5102663;27;87181;-41
2023/04/04 08:16:03;;;;;;;;;;;7.90;72.40;;;;;;5102857;27;88723;-41
2023/04/04 08:18:29;;;;;;;;;;;7.90;72.50;;;;;;5102623;27;89563;-41
2023/04/04 08:20:54;;;;;;;;;;;7.90;72.20;;;;;;5103972;27;86248;-41
2023/04/04 08:23:20;;;;;;;;;;;7.80;72.40;;;;;;5103507;27;88351;-40
2023/04/04 08:25:46;;;;;;;;;;;7.90;72.30;;;;;;5103272;27;88006;-41
2023/04/04 08:28:12;;;;;;;;;;;7.90;72.50;;;;;;5100940;27;88678;-41
2023/04/04 08:30:38;;;;;;;;;;;7.90;72.30;;;;;;5102660;27;89352;-40
2023/04/04 08:33:03;;;;;;;;;;;7.90;72.20;;;;;;5102872;27;87145;-41
2023/04/04 08:35:29;;;;;;;;;;;7.90;72.30;;;;;;5102707;27;88668;-41
2023/04/04 08:37:56;;;;;;;;;;;7.90;72.50;;;;;;5102498;27;89310;-40
2023/04/04 08:40:22;;;;;;;;;;;7.90;72.50;;;;;;5102738;27;86927;-41
2023/04/04 08:42:50;;;;;;;;;;;7.90;72.40;;;;;;5102310;27;87882;-41
2023/04/04 08:45:20;;;;;;;;;;;7.80;72.30;;;;;;5098924;27;88590;-41
2023/04/04 08:47:49;;;;;;;;;;;7.80;72.40;;;;;;5105598;27;87584;-41
2023/04/04 08:50:14;;;;;;;;;;;7.80;72.40;;;;;;5102225;27;89571;-41
2023/04/04 08:52:40;;;;;;;;;;;7.80;72.30;;;;;;5102016;27;88176;-41
2023/04/04 08:55:07;;;;;;;;;;;7.90;72.30;;;;;;5102570;27;89803;-41
2023/04/04 08:57:32;;;;;;;;;;;7.80;72.30;;;;;;5102334;27;89376;-40
2023/04/04 08:59:58;;;;;;;;;;;7.80;72.20;;;;;;5102515;27;87292;-41
2023/04/04 09:02:35;;;;;;;;;;;7.80;72.20;;;;;;5102492;27;88955;-41
2023/04/04 09:05:01;;;;;;;;;;;7.80;72.30;;;;;;5104248;27;89408;-41
2023/04/04 09:07:27;;;;;;;;;;;7.80;72.20;;;;;;5109256;27;87551;-41
2023/04/04 09:09:53;;;;;;;;;;;7.80;72.10;;;;;;5106040;27;88623;-41
2023/04/04 09:12:19;;;;;;;;;;;7.80;72.10;;;;;;5106391;27;88110;-41
2023/04/04 09:14:45;;;;;;;;;;;7.80;72.10;;;;;;5106058;27;88860;-41
2023/04/04 09:17:10;;;;;;;;;;;7.80;72.10;;;;;;5105604;27;89138;-41
2023/04/04 09:19:36;;;;;;;;;;;7.80;72.10;;;;;;5106134;27;87224;-41
2023/04/04 09:22:05;;;;;;;;;;;7.80;72.10;;;;;;5106299;27;88697;-41
2023/04/04 09:24:40;;;;;;;;;;;7.80;72.20;;;;;;5105141;27;89360;-41
2023/04/04 09:27:08;;;;;;;;;;;7.80;72.20;;;;;;5105773;27;87180;-41
2023/04/04 09:29:33;;;;;;;;;;;7.80;72.10;;;;;;5104415;27;88667;-41
2023/04/04 09:31:59;;;;;;;;;;;7.80;72.00;;;;;;5106154;27;87128;-41
2023/04/04 09:34:27;;;;;;;;;;;7.80;72.00;;;;;;5106689;27;87373;-40
2023/04/04 09:36:52;;;;;;;;;;;7.80;72.00;;;;;;5105188;27;89642;-41
2023/04/04 09:39:19;;;;;;;;;;;7.80;72.10;;;;;;5105612;27;87422;-41
2023/04/04 09:41:45;;;;;;;;;;;7.80;72.00;;;;;;5100939;27;89008;-40
2023/04/04 09:44:11;;;;;;;;;;;7.80;71.90;;;;;;5105288;27;89204;-41
2023/04/04 09:46:40;;;;;;;;;;;7.80;72.00;;;;;;5106038;27;87078;-41
2023/04/04 09:49:09;;;;;;;;;;;7.70;72.00;;;;;;5105637;27;87966;-41
2023/04/04 09:51:36;;;;;;;;;;;7.80;72.00;;;;;;5108147;27;89190;-41
2023/04/04 09:54:01;;;;;;;;;;;7.80;72.00;;;;;;5105728;27;88736;-41
2023/04/04 09:56:27;;;;;;;;;;;7.80;71.90;;;;;;5104916;27;89422;-41
2023/04/04 09:58:53;;;;;;;;;;;7.80;72.00;;;;;;5106306;27;86416;-41
2023/04/04 10:01:18;;;;;;;;;;;7.80;72.00;;;;;;5105440;27;88206;-41
2023/04/04 10:03:50;;;;;;;;;;;7.80;71.90;;;;;;5104637;27;88468;-41
2023/04/04 10:06:15;;;;;;;;;;;7.80;71.90;;;;;;5100498;27;88075;-41
2023/04/04 10:08:42;;;;;;;;;;;7.80;71.90;;;;;;5104977;27;88656;-41
2023/04/04 10:11:08;;;;;;;;;;;7.80;71.90;;;;;;5104710;27;87166;-41
2023/04/04 10:13:35;;;;;;;;;;;7.70;71.90;;;;;;5107527;27;87120;-41
2023/04/04 10:16:01;;;;;;;;;;;7.80;71.90;;;;;;5104207;27;89319;-41
2023/04/04 10:18:27;;;;;;;;;;;7.80;71.80;;;;;;5104634;27;87098;-41
2023/04/04 10:20:53;;;;;;;;;;;7.80;71.80;;;;;;5105246;27;89039;-41
2023/04/04 10:23:22;;;;;;;;;;;7.80;71.80;;;;;;5105093;27;87451;-41
2023/04/04 10:25:48;;;;;;;;;;;7.80;71.80;;;;;;5104807;27;87011;-41
2023/04/04 10:28:15;;;;;;;;;;;7.80;71.70;;;;;;5104968;27;88545;-41
2023/04/04 10:30:43;;;;;;;;;;;7.80;71.70;;;;;;5103731;27;89264;-41
2023/04/04 10:33:11;;;;;;;;;;;7.80;71.70;;;;;;5104486;27;87108;-41
2023/04/04 10:35:39;;;;;;;;;;;7.70;71.70;;;;;;5107419;27;88971;-41
2023/04/04 10:38:07;;;;;;;;;;;7.80;71.80;;;;;;5105121;27;87024;-41
2023/04/04 10:40:34;;;;;;;;;;;7.70;71.60;;;;;;5104341;27;88690;-41
2023/04/04 10:43:04;;;;;;;;;;;7.70;71.70;;;;;;5104379;27;88046;-41
2023/04/04 10:45:35;;;;;;;;;;;7.70;71.70;;;;;;5104574;27;87127;-41
2023/04/04 10:48:02;;;;;;;;;;;7.70;71.60;;;;;;5105165;27;88877;-41
2023/04/04 10:50:27;;;;;;;;;;;7.70;71.70;;;;;;5104275;27;89622;-41
2023/04/04 10:52:53;;;;;;;;;;;7.70;71.60;;;;;;5104681;27;87060;-41
2023/04/04 10:55:18;;;;;;;;;;;7.70;71.70;;;;;;5104116;27;87965;-41
2023/04/04 10:57:51;;;;;;;;;;;7.70;71.60;;;;;;5107030;27;89266;-41
2023/04/04 11:00:18;;;;;;;;;;;7.70;71.60;;;;;;5104312;27;88732;-41
2023/04/04 11:02:45;;;;;;;;;;;7.70;71.60;;;;;;5099800;27;89482;-41
2023/04/04 11:05:11;;;;;;;;;;;7.70;71.60;;;;;;5104304;27;87258;-41
2023/04/04 11:07:39;;;;;;;;;;;7.70;71.60;;;;;;5104232;27;88705;-41
2023/04/04 11:10:25;;;;;;;;;;;7.70;71.60;;;;;;5103841;27;88674;-41
2023/04/04 11:12:53;;;;;;;;;;;7.70;71.60;;;;;;5098725;27;86305;-41
2023/04/04 11:15:22;;;;;;;;;;;7.70;72.20;;;;;;5104252;27;88040;-41
2023/04/04 11:17:48;;;;;;;;;;;7.70;71.60;;;;;;5103070;27;88421;-41
2023/04/04 11:20:15;;;;;;;;;;;7.70;71.70;;;;;;5103474;27;88761;-41
2023/04/04 11:22:41;;;;;;;;;;;7.70;71.80;;;;;;5103718;27;88687;-41
2023/04/04 11:25:33;;;;;;;;;;;7.60;71.70;;;;;;5104177;27;87112;-41
2023/04/04 11:28:03;;;;;;;;;;;7.60;71.70;;;;;;5095901;27;87762;-41
2023/04/04 11:30:29;;;;;;;;;;;7.60;71.70;;;;;;5099677;27;88016;-41
2023/04/04 11:32:58;;;;;;;;;;;7.60;71.80;;;;;;5103459;27;87294;-41
2023/04/04 11:35:24;;;;;;;;;;;7.60;71.70;;;;;;5103549;27;88421;-41
2023/04/04 11:37:49;;;;;;;;;;;7.60;71.70;;;;;;5103879;27;88549;-41
2023/04/04 11:40:15;;;;;;;;;;;7.60;71.70;;;;;;5107123;27;87482;-41
2023/04/04 11:42:40;;;;;;;;;;;7.60;71.60;;;;;;5103221;27;89585;-41
2023/04/04 11:45:08;;;;;;;;;;;7.60;71.60;;;;;;5103136;27;88110;-41
2023/04/04 11:47:34;;;;;;;;;;;7.60;71.50;;;;;;5103651;27;89964;-41
2023/04/04 11:50:00;;;;;;;;;;;7.60;71.50;;;;;;5103604;27;89733;-41
2023/04/04 11:52:31;;;;;;;;;;;7.60;71.40;;;;;;5099639;27;87664;-41
2023/04/04 11:54:56;;;;;;;;;;;7.60;72.00;;;;;;5103554;27;88770;-41
2023/04/04 11:57:22;;;;;;;;;;;7.60;71.30;;;;;;5102829;27;88565;-41
2023/04/04 11:59:48;;;;;;;;;;;7.60;71.40;;;;;;5103633;27;87331;-41
2023/04/04 12:02:34;;;;;;;;;;;7.60;71.30;;;;;;5106458;27;88468;-41
2023/04/04 12:04:59;;;;;;;;;;;7.60;71.30;;;;;;5092295;27;87807;-41
2023/04/04 12:07:27;;;;;;;;;;;7.50;71.30;;;;;;5103461;27;87254;-41
2023/04/04 12:09:53;;;;;;;;;;;7.60;71.30;;;;;;5102207;27;90418;-41
2023/04/04 12:12:18;;;;;;;;;;;7.50;71.30;;;;;;5102785;27;87702;-41
2023/04/04 12:14:44;;;;;;;;;;;7.50;71.30;;;;;;5099199;27;87336;-41
2023/04/04 12:17:10;;;;;;;;;;;7.50;71.30;;;;;;5103149;27;88071;-41
2023/04/04 12:19:37;;;;;;;;;;;7.50;71.30;;;;;;5103381;27;87534;-41
2023/04/04 12:22:02;;;;;;;;;;;7.50;71.40;;;;;;5102858;27;88844;-41
2023/04/04 12:24:28;;;;;;;;;;;7.50;71.40;;;;;;5101635;27;87808;-41
2023/04/04 12:26:53;;;;;;;;;;;7.50;71.40;;;;;;5103383;27;87852;-41
2023/04/04 12:29:20;;;;;;;;;;;7.50;71.40;;;;;;5098720;27;89172;-41
2023/04/04 12:31:47;;;;;;;;;;;7.50;71.40;;;;;;5103516;27;87968;-41
2023/04/04 12:34:22;;;;;;;;;;;7.50;71.40;;;;;;5102600;27;88612;-41
2023/04/04 12:36:50;;;;;;;;;;;7.50;71.40;;;;;;5102489;27;89291;-41
2023/04/04 12:39:16;;;;;;;;;;;7.50;71.40;;;;;;5102948;27;87666;-41
2023/04/04 12:41:51;;;;;;;;;;;7.50;71.40;;;;;;5102711;27;88504;-41
2023/04/04 12:44:29;;;;;;;;;;;7.50;71.40;;;;;;5100950;27;91150;-41
2023/04/04 12:46:58;;;;;;;;;;;7.50;71.30;;;;;;5103142;27;87483;-41
2023/04/04 12:49:27;;;;;;;;;;;7.40;71.50;;;;;;5101899;27;89662;-41
2023/04/04 12:51:53;;;;;;;;;;;7.40;71.40;;;;;;5102866;27;86439;-41
2023/04/04 12:54:28;;;;;;;;;;;7.40;71.40;;;;;;5102816;27;88423;-41
2023/04/04 12:56:56;;;;;;;;;;;7.40;71.40;;;;;;5102183;27;88998;-41
2023/04/04 12:59:24;;;;;;;;;;;7.40;71.40;;;;;;5101993;27;88074;-41
2023/04/04 13:01:50;;;;;;;;;;;7.40;71.30;;;;;;5099073;27;89931;-41
2023/04/04 13:04:16;;;;;;;;;;;7.40;71.50;;;;;;5102551;27;89354;-41
2023/04/04 13:06:46;;;;;;;;;;;7.40;71.50;;;;;;5102703;27;87012;-41
2023/04/04 13:09:19;;;;;;;;;;;7.40;71.50;;;;;;5105186;27;88701;-41
2023/04/04 13:12:00;;;;;;;;;;;7.40;71.50;;;;;;5099510;27;87439;-41
2023/04/04 13:14:45;;;;;;;;;;;7.40;71.50;;;;;;5102557;27;87119;-41
2023/04/04 13:17:10;;;;;;;;;;;7.40;71.40;;;;;;5101501;27;88672;-41
2023/04/04 13:19:36;;;;;;;;;;;7.40;71.40;;;;;;5102214;27;88099;-41
2023/04/04 13:22:02;;;;;;;;;;;7.40;71.40;;;;;;5102253;27;89132;-41
2023/04/04 13:24:27;;;;;;;;;;;7.30;71.40;;;;;;5101021;27;90115;-41
2023/04/04 13:26:53;;;;;;;;;;;7.30;71.30;;;;;;5102184;27;87870;-41
2023/04/04 13:29:18;;;;;;;;;;;7.30;71.40;;;;;;5104699;27;88947;-41
2023/04/04 13:31:44;;;;;;;;;;;7.30;71.40;;;;;;5101948;27;87175;-41
2023/04/04 13:34:10;;;;;;;;;;;7.30;71.30;;;;;;5102666;27;87343;-41
2023/04/04 13:36:35;;;;;;;;;;;7.30;71.30;;;;;;5101731;27;89619;-41
2023/04/04 13:39:01;;;;;;;;;;;7.30;71.30;;;;;;5102083;27;87473;-41
2023/04/04 13:41:26;;;;;;;;;;;7.30;71.10;;;;;;5102338;27;87801;-41
2023/04/04 13:43:52;;;;;;;;;;;7.30;71.20;;;;;;5101735;27;89673;-41
2023/04/04 13:46:17;;;;;;;;;;;7.30;71.20;;;;;;5102469;27;87020;-41
2023/04/04 13:48:43;;;;;;;;;;;7.30;71.20;;;;;;5102067;27;88011;-41
2023/04/04 13:51:08;;;;;;;;;;;7.30;71.30;;;;;;5107148;27;88384;-41
2023/04/04 13:53:34;;;;;;;;;;;7.30;71.30;;;;;;5105491;27;88821;-41
2023/04/04 13:56:00;;;;;;;;;;;7.20;71.30;;;;;;5105483;27;89256;-41
2023/04/04 13:58:25;;;;;;;;;;;7.20;71.20;;;;;;5103940;27;87201;-41
2023/04/04 14:00:51;;;;;;;;;;;7.20;71.30;;;;;;5105687;27;87941;-41
2023/04/04 14:03:16;;;;;;;;;;;7.20;71.20;;;;;;5105247;27;87685;-41
2023/04/04 14:05:42;;;;;;;;;;;7.20;71.20;;;;;;5105929;27;86373;-41
2023/04/04 14:08:07;;;;;;;;;;;7.20;71.20;;;;;;5105247;27;87989;-41
2023/04/04 14:10:33;;;;;;;;;;;7.20;71.20;;;;;;5105282;27;88005;-41
2023/04/04 14:12:59;;;;;;;;;;;7.20;71.30;;;;;;5106536;27;88060;-41
2023/04/04 14:15:24;;;;;;;;;;;7.20;71.20;;;;;;5103370;27;89504;-41
2023/04/04 14:17:50;;;;;;;;;;;7.20;71.20;;;;;;5105256;27;87088;-41
2023/04/04 14:20:15;;;;;;;;;;;7.20;71.10;;;;;;5105402;27;89094;-41
2023/04/04 14:22:41;;;;;;;;;;;7.20;71.20;;;;;;5104609;27;89260;-42
2023/04/04 14:25:07;;;;;;;;;;;7.20;71.30;;;;;;5105189;27;87035;-42
2023/04/04 14:27:33;;;;;;;;;;;7.20;71.20;;;;;;5104636;27;88888;-42